createdAt,value
2023-05-07T00:00:53.286Z,82.34
2023-05-07T00:01:48.328Z,83.33
2023-05-07T00:02:43.429Z,84.42
2023-05-07T00:03:38.515Z,84.08
2023-05-07T00:04:33.605Z,85.11
2023-05-07T00:05:28.724Z,86.35
2023-05-07T00:06:24.009Z,87.07
2023-05-07T00:07:18.766Z,87.80
2023-05-07T00:08:13.847Z,87.89
2023-05-07T00:09:08.850Z,88.26
2023-05-07T00:10:03.903Z,88.17
2023-05-07T00:10:59.023Z,87.89
2023-05-07T00:11:54.107Z,87.99
2023-05-07T00:12:49.332Z,88.17
2023-05-07T00:13:44.325Z,88.54
2023-05-07T00:14:39.372Z,88.54
2023-05-07T00:15:34.637Z,89.11
2023-05-07T00:16:29.988Z,89.49
2023-05-07T00:17:25.165Z,89.98
2023-05-07T00:18:21.437Z,91.06
2023-05-07T00:19:16.665Z,91.56
2023-05-07T00:20:12.690Z,92.16
2023-05-07T00:21:07.795Z,92.37
2023-05-07T00:22:02.950Z,92.37
2023-05-07T00:22:58.736Z,91.76
2023-05-07T00:23:53.911Z,91.26
2023-05-07T00:24:49.859Z,90.66
2023-05-07T00:25:44.991Z,90.96
2023-05-07T00:26:40.776Z,90.46
2023-05-07T00:27:35.962Z,90.37
2023-05-07T00:28:31.184Z,89.98
2023-05-07T00:29:26.240Z,89.78
2023-05-07T00:30:22.679Z,89.78
2023-05-07T00:31:18.043Z,89.78
2023-05-07T00:32:13.799Z,89.30
2023-05-07T00:33:08.968Z,88.83
2023-05-07T00:34:04.076Z,89.11
2023-05-07T00:34:59.828Z,88.64
2023-05-07T00:35:55.072Z,88.64
2023-05-07T00:36:50.867Z,88.26
2023-05-07T00:37:46.130Z,88.54
2023-05-07T00:38:41.246Z,88.26
2023-05-07T00:39:37.050Z,88.73
2023-05-07T00:40:32.130Z,89.02
2023-05-07T00:41:27.284Z,89.49
2023-05-07T00:42:23.874Z,90.07
2023-05-07T00:43:18.949Z,90.27
2023-05-07T00:44:14.687Z,90.46
2023-05-07T00:45:09.875Z,91.16
2023-05-07T00:46:05.118Z,92.06
2023-05-07T00:47:00.897Z,91.76
2023-05-07T00:47:56.363Z,91.36
2023-05-07T00:48:52.063Z,91.56
2023-05-07T00:49:47.213Z,91.36
2023-05-07T00:50:42.560Z,91.86
2023-05-07T00:51:38.317Z,91.96
2023-05-07T00:52:33.584Z,92.16
2023-05-07T00:53:28.836Z,92.57
2023-05-07T00:54:25.240Z,92.88
2023-05-07T00:55:20.409Z,92.99
2023-05-07T00:56:16.335Z,92.57
2023-05-07T00:57:11.674Z,92.88
2023-05-07T00:58:07.017Z,92.37
2023-05-07T00:59:02.540Z,92.06
2023-05-07T00:59:57.748Z,92.68
2023-05-07T01:00:53.627Z,92.16
2023-05-07T01:01:48.916Z,91.96
2023-05-07T01:02:44.470Z,91.26
2023-05-07T01:03:39.819Z,91.66
2023-05-07T01:04:35.158Z,91.16
2023-05-07T01:05:30.210Z,90.37
2023-05-07T01:06:26.894Z,90.07
2023-05-07T01:07:22.364Z,90.56
2023-05-07T01:08:18.042Z,90.96
2023-05-07T01:09:13.208Z,90.76
2023-05-07T01:10:08.325Z,91.16
2023-05-07T01:11:04.213Z,91.46
2023-05-07T01:11:59.685Z,92.16
2023-05-07T01:12:55.337Z,92.68
2023-05-07T01:13:50.456Z,92.26
2023-05-07T01:14:45.688Z,91.66
2023-05-07T01:15:40.849Z,91.66
2023-05-07T01:16:36.335Z,91.66
2023-05-07T01:17:32.463Z,91.36
2023-05-07T01:18:27.707Z,92.16
2023-05-07T01:19:23.492Z,92.37
2023-05-07T01:20:18.778Z,93.61
2023-05-07T01:21:14.184Z,94.46
2023-05-07T01:22:10.022Z,95.21
2023-05-07T01:23:05.178Z,95.54
2023-05-07T01:24:00.987Z,95.43
2023-05-07T01:24:56.240Z,95.21
2023-05-07T01:25:51.695Z,94.78
2023-05-07T01:26:47.483Z,93.82
2023-05-07T01:27:42.690Z,93.61
2023-05-07T01:28:37.883Z,94.14
2023-05-07T01:29:34.292Z,94.46
2023-05-07T01:30:29.537Z,95.21
2023-05-07T01:31:25.317Z,94.78
2023-05-07T01:32:20.457Z,95.32
2023-05-07T01:33:15.665Z,95.43
2023-05-07T01:34:10.846Z,95.32
2023-05-07T01:35:06.401Z,95.32
2023-05-07T01:36:01.491Z,95.54
2023-05-07T01:36:56.605Z,95.87
2023-05-07T01:37:52.372Z,94.23
2023-05-07T01:38:47.599Z,94.49
2023-05-07T01:39:42.986Z,95.36
2023-05-07T01:40:38.643Z,96.68
2023-05-07T01:41:33.830Z,98.16
2023-05-07T01:42:29.213Z,98.51
2023-05-07T01:43:24.338Z,97.70
2023-05-07T01:44:19.506Z,97.19
2023-05-07T01:45:14.546Z,96.68
2023-05-07T01:46:09.600Z,97.30
2023-05-07T01:47:04.773Z,97.42
2023-05-07T01:47:59.795Z,96.13
2023-05-07T01:48:54.954Z,96.07
2023-05-07T01:49:49.885Z,95.90
2023-05-07T01:50:44.907Z,97.36
2023-05-07T01:51:40.178Z,96.24
2023-05-07T01:52:34.950Z,97.19
2023-05-07T01:53:30.036Z,97.42
2023-05-07T01:54:25.101Z,98.16
2023-05-07T01:55:20.323Z,98.80
2023-05-07T01:56:15.371Z,98.92
2023-05-07T01:58:36.763Z,89.40
2023-05-07T01:59:31.010Z,89.78
2023-05-07T02:00:26.173Z,92.26
2023-05-07T02:01:21.357Z,93.30
2023-05-07T02:02:16.925Z,95.43
2023-05-07T02:03:11.811Z,95.76
2023-05-07T02:04:07.043Z,94.92
2023-05-07T02:05:01.997Z,96.13
2023-05-07T02:05:57.198Z,96.79
2023-05-07T02:06:52.382Z,97.82
2023-05-07T02:07:47.565Z,98.68
2023-05-07T02:08:42.847Z,99.75
2023-05-07T02:09:37.980Z,100.11
2023-05-07T02:10:33.177Z,100.83
2023-05-07T02:11:28.598Z,101.44
2023-05-07T02:12:23.658Z,101.63
2023-05-07T02:13:18.933Z,102.00
2023-05-07T02:14:14.045Z,102.13
2023-05-07T02:15:09.296Z,102.00
2023-05-07T02:16:04.501Z,102.95
2023-05-07T02:16:59.769Z,103.20
2023-05-07T02:17:55.004Z,103.20
2023-05-07T02:18:50.355Z,103.33
2023-05-07T02:19:45.544Z,103.26
2023-05-07T02:20:40.642Z,103.07
2023-05-07T02:21:36.031Z,103.39
2023-05-07T02:22:31.131Z,103.71
2023-05-07T02:23:26.352Z,103.07
2023-05-07T02:24:21.625Z,103.52
2023-05-07T02:25:16.826Z,102.76
2023-05-07T02:26:12.310Z,102.57
2023-05-07T02:27:07.262Z,103.39
2023-05-07T02:28:02.514Z,103.46
2023-05-07T02:28:57.833Z,103.71
2023-05-07T02:29:52.958Z,104.30
2023-05-07T02:30:48.143Z,104.95
2023-05-07T02:31:43.617Z,105.68
2023-05-07T02:32:38.603Z,105.95
2023-05-07T02:33:33.814Z,106.15
2023-05-07T02:34:28.910Z,107.32
2023-05-07T02:35:24.167Z,107.18
2023-05-07T02:36:19.550Z,107.59
2023-05-07T02:37:14.664Z,107.52
2023-05-07T02:38:09.864Z,108.08
2023-05-07T02:39:05.234Z,107.66
2023-05-07T02:40:00.336Z,108.15
2023-05-07T02:40:55.591Z,107.45
2023-05-07T02:41:50.687Z,106.97
2023-05-07T02:42:45.929Z,106.90
2023-05-07T02:43:41.124Z,107.59
2023-05-07T02:44:36.371Z,107.38
2023-05-07T02:45:32.056Z,107.66
2023-05-07T02:46:26.832Z,106.70
2023-05-07T02:47:22.038Z,107.32
2023-05-07T02:48:17.271Z,108.01
2023-05-07T02:49:12.596Z,108.36
2023-05-07T02:50:07.709Z,107.94
2023-05-07T02:51:03.095Z,107.73
2023-05-07T02:51:58.220Z,106.49
2023-05-07T02:52:53.393Z,106.22
2023-05-07T02:53:48.610Z,105.48
2023-05-07T02:54:43.809Z,105.95
2023-05-07T02:55:39.191Z,105.55
2023-05-07T02:56:34.230Z,104.82
2023-05-07T02:57:29.488Z,105.48
2023-05-07T02:58:24.709Z,104.82
2023-05-07T02:59:20.083Z,105.15
2023-05-07T03:00:15.171Z,105.75
2023-05-07T03:01:10.499Z,105.02
2023-05-07T03:02:05.566Z,105.28
2023-05-07T03:03:00.846Z,106.09
2023-05-07T03:03:56.031Z,106.63
2023-05-07T03:04:51.311Z,107.59
2023-05-07T03:05:46.704Z,107.73
2023-05-07T03:06:41.797Z,108.43
2023-05-07T03:07:37.029Z,109.79
2023-05-07T03:08:32.250Z,110.37
2023-05-07T03:09:27.594Z,111.03
2023-05-07T03:10:22.938Z,111.32
2023-05-07T03:11:17.876Z,110.08
2023-05-07T03:12:13.128Z,110.51
2023-05-07T03:13:08.408Z,110.81
2023-05-07T03:14:03.593Z,110.95
2023-05-07T03:14:58.818Z,110.59
2023-05-07T03:15:54.256Z,110.81
2023-05-07T03:16:49.164Z,110.95
2023-05-07T03:17:44.449Z,110.59
2023-05-07T03:18:39.540Z,110.51
2023-05-07T03:19:34.869Z,110.81
2023-05-07T03:20:29.968Z,110.88
2023-05-07T03:21:25.354Z,110.37
2023-05-07T03:22:20.315Z,110.81
2023-05-07T03:23:15.526Z,110.66
2023-05-07T03:24:10.734Z,111.32
2023-05-07T03:25:06.003Z,111.55
2023-05-07T03:26:01.352Z,111.92
2023-05-07T03:26:56.445Z,112.22
2023-05-07T03:27:51.674Z,112.91
2023-05-07T03:28:46.930Z,112.37
2023-05-07T03:29:42.253Z,112.07
2023-05-07T03:30:37.382Z,112.37
2023-05-07T03:31:32.722Z,112.45
2023-05-07T03:32:27.838Z,112.07
2023-05-07T03:33:22.979Z,112.07
2023-05-07T03:34:18.264Z,111.47
2023-05-07T03:35:13.554Z,111.77
2023-05-07T03:36:08.846Z,112.07
2023-05-07T03:37:04.145Z,111.55
2023-05-07T03:37:59.365Z,112.15
2023-05-07T03:38:54.631Z,112.53
2023-05-07T03:39:50.048Z,113.44
2023-05-07T03:40:45.188Z,113.75
2023-05-07T03:41:40.653Z,114.61
2023-05-07T03:42:35.666Z,114.85
2023-05-07T03:43:30.970Z,114.06
2023-05-07T03:44:26.211Z,115.40
2023-05-07T03:45:21.558Z,115.56
2023-05-07T03:46:16.950Z,116.53
2023-05-07T03:47:12.053Z,116.53
2023-05-07T03:48:07.376Z,116.94
2023-05-07T03:49:02.616Z,117.11
2023-05-07T03:49:58.003Z,118.35
2023-05-07T03:50:53.250Z,117.93
2023-05-07T03:51:48.428Z,118.18
2023-05-07T03:52:43.794Z,118.18
2023-05-07T03:53:39.103Z,119.62
2023-05-07T03:54:34.437Z,119.28
2023-05-07T03:55:29.780Z,120.31
2023-05-07T03:56:25.285Z,119.54
2023-05-07T03:57:20.336Z,119.11
2023-05-07T03:58:15.768Z,119.28
2023-05-07T03:59:11.001Z,119.62
2023-05-07T04:00:06.564Z,119.20
2023-05-07T04:01:01.940Z,118.60
2023-05-07T04:01:57.154Z,119.20
2023-05-07T04:02:52.402Z,119.45
2023-05-07T04:03:47.874Z,120.23
2023-05-07T04:04:43.096Z,119.79
2023-05-07T04:05:38.537Z,119.62
2023-05-07T04:06:33.948Z,120.23
2023-05-07T04:07:29.233Z,120.57
2023-05-07T04:08:24.489Z,120.14
2023-05-07T04:09:19.899Z,120.31
2023-05-07T04:10:15.458Z,119.97
2023-05-07T04:11:10.694Z,120.05
2023-05-07T04:12:05.920Z,120.49
2023-05-07T04:13:01.432Z,120.75
2023-05-07T04:13:56.666Z,120.75
2023-05-07T04:14:52.065Z,120.40
2023-05-07T04:15:47.343Z,120.31
2023-05-07T04:16:42.941Z,119.88
2023-05-07T04:17:38.028Z,119.37
2023-05-07T04:18:33.460Z,118.94
2023-05-07T04:19:28.687Z,119.37
2023-05-07T04:20:24.233Z,119.11
2023-05-07T04:21:19.478Z,117.43
2023-05-07T04:22:15.058Z,118.69
2023-05-07T04:23:10.178Z,118.27
2023-05-07T04:24:05.580Z,117.52
2023-05-07T04:25:00.942Z,116.61
2023-05-07T04:25:56.367Z,117.02
2023-05-07T04:26:51.936Z,117.02
2023-05-07T04:27:47.078Z,115.89
2023-05-07T04:28:42.377Z,117.02
2023-05-07T04:29:37.680Z,117.02
2023-05-07T04:30:33.219Z,117.77
2023-05-07T04:31:28.597Z,118.69
2023-05-07T04:32:24.042Z,119.45
2023-05-07T04:33:19.232Z,119.37
2023-05-07T04:34:14.688Z,119.03
2023-05-07T04:35:10.013Z,119.20
2023-05-07T04:36:05.340Z,120.05
2023-05-07T04:37:00.641Z,119.62
2023-05-07T04:37:56.272Z,120.14
2023-05-07T04:38:51.447Z,120.23
2023-05-07T04:39:46.922Z,121.28
2023-05-07T04:40:42.326Z,121.72
2023-05-07T04:41:37.706Z,121.63
2023-05-07T04:42:33.149Z,122.70
2023-05-07T04:43:28.363Z,122.25
2023-05-07T04:44:23.770Z,122.52
2023-05-07T04:45:19.215Z,122.52
2023-05-07T04:46:14.568Z,124.16
2023-05-07T04:47:10.234Z,124.53
2023-05-07T04:48:05.498Z,124.63
2023-05-07T04:49:01.082Z,123.43
2023-05-07T04:49:56.429Z,123.43
2023-05-07T04:50:51.958Z,123.06
2023-05-07T04:51:47.624Z,123.61
2023-05-07T04:52:42.865Z,124.07
2023-05-07T04:53:38.573Z,124.35
2023-05-07T04:54:33.854Z,123.79
2023-05-07T04:55:29.206Z,124.16
2023-05-07T04:56:24.733Z,124.35
2023-05-07T04:57:20.415Z,124.16
2023-05-07T04:58:15.648Z,124.25
2023-05-07T04:59:10.977Z,123.98
2023-05-07T05:00:06.377Z,122.79
2023-05-07T05:01:01.894Z,122.34
2023-05-07T05:01:57.492Z,121.72
2023-05-07T05:02:52.589Z,120.84
2023-05-07T05:03:48.107Z,120.57
2023-05-07T05:04:43.454Z,119.79
2023-05-07T05:05:38.963Z,118.77
2023-05-07T05:06:34.601Z,117.93
2023-05-07T05:07:29.860Z,118.18
2023-05-07T05:08:25.199Z,117.11
2023-05-07T05:09:20.838Z,116.61
2023-05-07T05:10:16.214Z,114.69
2023-05-07T05:11:11.784Z,113.91
2023-05-07T05:12:07.244Z,113.29
2023-05-07T05:13:02.697Z,113.75
2023-05-07T05:13:58.014Z,113.37
2023-05-07T05:14:53.680Z,113.14
2023-05-07T05:15:49.067Z,112.68
2023-05-07T05:16:44.591Z,111.47
2023-05-07T05:17:40.109Z,110.51
2023-05-07T05:18:35.481Z,110.37
2023-05-07T05:19:30.843Z,109.21
2023-05-07T05:20:26.482Z,108.78
2023-05-07T05:21:22.026Z,108.43
2023-05-07T05:22:17.258Z,107.80
2023-05-07T05:23:12.636Z,107.11
2023-05-07T05:24:08.028Z,106.56
2023-05-07T05:25:03.357Z,107.38
2023-05-07T05:25:58.890Z,106.49
2023-05-07T05:26:54.535Z,107.45
2023-05-07T05:27:49.769Z,107.66
2023-05-07T05:28:45.110Z,108.29
2023-05-07T05:29:40.504Z,107.38
2023-05-07T05:30:35.856Z,107.25
2023-05-07T05:31:31.633Z,107.94
2023-05-07T05:32:26.948Z,107.45
2023-05-07T05:33:22.281Z,106.83
2023-05-07T05:34:17.765Z,105.35
2023-05-07T05:35:13.165Z,104.10
2023-05-07T05:36:08.522Z,103.14
2023-05-07T05:37:04.112Z,102.57
2023-05-07T05:37:59.321Z,102.13
2023-05-07T05:38:54.825Z,102.38
2023-05-07T05:39:50.200Z,101.69
2023-05-07T05:40:45.871Z,101.82
2023-05-07T05:41:41.401Z,102.69
2023-05-07T05:42:36.637Z,103.01
2023-05-07T05:43:31.995Z,101.63
2023-05-07T05:44:27.515Z,101.50
2023-05-07T05:45:23.053Z,101.75
2023-05-07T05:46:18.458Z,102.19
2023-05-07T05:47:13.964Z,101.20
2023-05-07T05:48:09.270Z,100.11
2023-05-07T05:49:04.575Z,99.51
2023-05-07T05:50:00.234Z,98.63
2023-05-07T05:50:55.395Z,101.75
2023-05-07T05:51:51.080Z,101.01
2023-05-07T05:52:46.648Z,101.88
2023-05-07T05:53:41.942Z,101.82
2023-05-07T05:54:37.303Z,102.06
2023-05-07T05:55:32.708Z,101.32
2023-05-07T05:56:28.070Z,103.01
2023-05-07T05:57:24.509Z,100.71
2023-05-07T05:58:19.132Z,99.81
2023-05-07T05:59:14.654Z,101.32
2023-05-07T06:00:10.306Z,102.38
2023-05-07T06:01:05.626Z,102.13
2023-05-07T06:02:01.184Z,102.76
2023-05-07T06:02:56.425Z,101.07
2023-05-07T06:03:51.769Z,101.63
2023-05-07T06:04:47.470Z,103.65
2023-05-07T06:05:42.810Z,105.62
2023-05-07T06:06:38.213Z,106.29
2023-05-07T06:07:33.728Z,108.86
2023-05-07T06:08:28.992Z,112.00
2023-05-07T06:09:24.346Z,116.37
2023-05-07T06:10:19.870Z,120.49
2023-05-07T06:11:15.352Z,120.23
2023-05-07T06:12:10.929Z,120.75
2023-05-07T06:13:06.190Z,119.71
2023-05-07T06:14:01.820Z,118.52
2023-05-07T06:14:57.173Z,122.61
2023-05-07T06:15:52.673Z,124.35
2023-05-07T06:16:48.159Z,129.06
2023-05-07T06:17:43.849Z,130.07
2023-05-07T06:18:39.080Z,124.16
2023-05-07T06:19:34.600Z,110.59
2023-05-07T06:20:29.883Z,103.01
2023-05-07T06:21:25.322Z,96.63
2023-05-07T06:22:20.819Z,95.52
2023-05-07T06:23:17.936Z,94.60
2023-05-07T06:24:11.298Z,95.52
2023-05-07T06:25:06.765Z,96.02
2023-05-07T06:26:02.057Z,101.69
2023-05-07T06:26:57.746Z,106.29
2023-05-07T06:27:52.980Z,111.25
2023-05-07T06:28:48.488Z,115.48
2023-05-07T06:29:43.958Z,112.75
2023-05-07T06:30:39.377Z,112.30
2023-05-07T06:31:34.765Z,109.57
2023-05-07T06:32:30.569Z,106.09
2023-05-07T06:33:25.785Z,106.70
2023-05-07T06:34:21.312Z,107.25
2023-05-07T06:35:16.777Z,111.85
2023-05-07T06:36:12.210Z,113.83
2023-05-07T06:37:07.728Z,114.53
2023-05-07T06:38:03.129Z,114.14
2023-05-07T06:38:58.404Z,113.21
2023-05-07T06:39:53.895Z,110.73
2023-05-07T06:40:49.277Z,112.30
2023-05-07T06:41:44.789Z,114.93
2023-05-07T06:42:40.476Z,120.84
2023-05-07T06:43:35.723Z,131.71
2023-05-07T06:44:31.075Z,134.58
2023-05-07T06:45:26.750Z,130.47
2023-05-07T06:46:22.138Z,124.91
2023-05-07T06:47:17.815Z,121.10
2023-05-07T06:48:13.166Z,122.43
2023-05-07T06:49:08.574Z,123.98
2023-05-07T06:50:03.957Z,122.79
2023-05-07T06:50:59.331Z,121.28
2023-05-07T06:51:54.858Z,120.31
2023-05-07T06:52:50.113Z,127.48
2023-05-07T06:53:45.489Z,142.02
2023-05-07T06:54:40.894Z,152.12
2023-05-07T06:55:36.236Z,155.67
2023-05-07T06:56:31.942Z,155.67
2023-05-07T06:57:27.042Z,153.66
2023-05-07T06:58:22.561Z,150.34
2023-05-07T06:59:17.957Z,144.61
2023-05-07T07:00:13.637Z,146.12
2023-05-07T07:01:09.000Z,158.93
2023-05-07T07:02:04.642Z,176.21
2023-05-07T07:02:59.814Z,185.83
2023-05-07T07:03:55.220Z,189.70
2023-05-07T07:04:50.657Z,192.03
2023-05-07T07:05:46.483Z,198.54
2023-05-07T07:06:41.938Z,205.89
2023-05-07T07:07:37.267Z,205.76
2023-05-07T07:08:32.670Z,209.04
2023-05-07T07:09:28.240Z,212.42
2023-05-07T07:10:23.793Z,210.65
2023-05-07T07:11:19.358Z,210.51
2023-05-07T07:12:14.933Z,207.32
2023-05-07T07:13:10.308Z,202.71
2023-05-07T07:14:05.706Z,202.58
2023-05-07T07:15:01.389Z,216.91
2023-05-07T07:15:56.850Z,221.60
2023-05-07T07:16:52.291Z,227.76
2023-05-07T07:17:47.863Z,229.67
2023-05-07T07:18:43.194Z,224.64
2023-05-07T07:19:38.573Z,226.03
2023-05-07T07:20:34.034Z,234.93
2023-05-07T07:21:29.624Z,238.86
2023-05-07T07:22:24.919Z,231.78
2023-05-07T07:23:20.369Z,226.97
2023-05-07T07:24:16.092Z,217.35
2023-05-07T07:25:11.548Z,203.46
2023-05-07T07:26:07.103Z,202.21
2023-05-07T07:27:02.431Z,200.73
2023-05-07T07:27:57.922Z,221.90
2023-05-07T07:28:53.537Z,230.80
2023-05-07T07:29:49.029Z,234.09
2023-05-07T07:30:44.464Z,241.15
2023-05-07T07:31:40.210Z,246.95
2023-05-07T07:32:35.627Z,244.38
2023-05-07T07:33:31.171Z,243.11
2023-05-07T07:34:26.516Z,233.59
2023-05-07T07:35:21.999Z,224.95
2023-05-07T07:36:17.797Z,201.84
2023-05-07T07:37:12.894Z,188.29
2023-05-07T07:38:08.398Z,199.63
2023-05-07T07:39:03.899Z,190.47
2023-05-07T07:39:59.360Z,189.04
2023-05-07T07:40:54.881Z,186.57
2023-05-07T07:41:50.372Z,188.50
2023-05-07T07:42:45.875Z,186.45
2023-05-07T07:43:41.353Z,186.15
2023-05-07T07:44:36.891Z,185.20
2023-05-07T07:45:32.196Z,193.16
2023-05-07T07:46:28.165Z,210.38
2023-05-07T07:47:23.329Z,222.81
2023-05-07T07:48:19.018Z,232.27
2023-05-07T07:49:14.518Z,236.97
2023-05-07T07:50:10.145Z,232.93
2023-05-07T07:51:05.404Z,228.23
2023-05-07T07:52:00.995Z,231.12
2023-05-07T07:52:56.366Z,238.00
2023-05-07T07:53:51.875Z,239.74
2023-05-07T07:54:47.346Z,229.35
2023-05-07T07:55:42.837Z,229.19
2023-05-07T07:56:38.474Z,234.60
2023-05-07T07:58:57.220Z,261.52
2023-05-07T07:59:52.648Z,233.76
2023-05-07T08:00:47.936Z,216.49
2023-05-07T08:01:43.500Z,201.71
2023-05-07T08:02:38.766Z,188.83
2023-05-07T08:03:34.354Z,192.82
2023-05-07T08:04:29.858Z,194.65
2023-05-07T08:05:25.435Z,198.90
2023-05-07T08:06:21.082Z,200.73
2023-05-07T08:07:16.553Z,213.53
2023-05-07T08:08:11.979Z,229.51
2023-05-07T08:09:07.598Z,233.26
2023-05-07T08:10:02.936Z,239.04
2023-05-07T08:10:58.433Z,241.50
2023-05-07T08:11:53.755Z,242.04
2023-05-07T08:12:49.202Z,239.04
2023-05-07T08:13:44.603Z,236.80
2023-05-07T08:14:40.235Z,235.44
2023-05-07T08:15:35.595Z,234.43
2023-05-07T08:16:31.321Z,236.11
2023-05-07T08:17:26.875Z,235.27
2023-05-07T08:18:22.384Z,233.93
2023-05-07T08:19:17.856Z,227.12
2023-05-07T08:20:13.827Z,223.26
2023-05-07T08:21:09.312Z,218.94
2023-05-07T08:22:04.652Z,208.51
2023-05-07T08:23:00.203Z,208.37
2023-05-07T08:23:55.561Z,216.20
2023-05-07T08:24:51.124Z,221.01
2023-05-07T08:25:46.593Z,236.28
2023-05-07T08:26:41.909Z,248.45
2023-05-07T08:27:37.414Z,255.01
2023-05-07T08:28:32.915Z,244.74
2023-05-07T08:29:29.310Z,225.25
2023-05-07T08:30:23.941Z,224.33
2023-05-07T08:31:19.729Z,235.60
2023-05-07T08:32:15.113Z,242.57
2023-05-07T08:33:10.773Z,245.29
2023-05-07T08:34:07.766Z,229.51
2023-05-07T08:35:01.559Z,209.71
2023-05-07T08:35:57.052Z,215.63
2023-05-07T08:36:52.420Z,223.57
2023-05-07T08:37:47.920Z,214.64
2023-05-07T08:38:43.417Z,213.11
2023-05-07T08:39:38.852Z,218.79
2023-05-07T08:40:34.345Z,205.24
2023-05-07T08:41:29.854Z,195.46
2023-05-07T08:42:25.223Z,194.08
2023-05-07T08:43:20.681Z,208.11
2023-05-07T08:44:16.181Z,216.77
2023-05-07T08:45:11.702Z,224.64
2023-05-07T08:46:10.091Z,229.35
2023-05-07T08:47:02.670Z,235.27
2023-05-07T08:47:58.192Z,242.04
2023-05-07T08:48:53.631Z,250.35
2023-05-07T08:49:49.088Z,250.54
2023-05-07T08:50:45.546Z,249.02
2023-05-07T08:51:42.140Z,252.66
2023-05-07T08:52:35.633Z,249.58
2023-05-07T08:53:31.135Z,243.47
2023-05-07T08:54:26.467Z,222.81
2023-05-07T08:55:22.261Z,210.24
2023-05-07T08:56:17.572Z,223.11
2023-05-07T08:57:13.111Z,218.21
2023-05-07T08:58:08.463Z,204.99
2023-05-07T08:59:04.074Z,181.78
2023-05-07T08:59:59.575Z,186.04
2023-05-07T09:00:55.071Z,186.04
2023-05-07T09:01:50.598Z,187.10
2023-05-07T09:02:46.242Z,185.21
2023-05-07T09:03:41.785Z,182.98
2023-05-07T09:04:37.105Z,190.14
2023-05-07T09:05:32.912Z,206.15
2023-05-07T09:06:28.207Z,218.94
2023-05-07T09:07:23.717Z,214.93
2023-05-07T09:08:19.183Z,212.15
2023-05-07T09:09:14.672Z,222.50
2023-05-07T09:10:10.451Z,232.76
2023-05-07T09:11:05.628Z,238.86
2023-05-07T09:12:01.246Z,244.93
2023-05-07T09:12:56.776Z,246.03
2023-05-07T09:13:52.224Z,244.38
2023-05-07T09:14:47.867Z,240.09
2023-05-07T09:15:43.383Z,240.44
2023-05-07T09:16:38.682Z,245.84
2023-05-07T09:17:34.109Z,257.42
2023-05-07T09:18:29.455Z,235.10
2023-05-07T09:19:24.794Z,190.25
2023-05-07T09:20:20.334Z,187.53
2023-05-07T09:21:15.639Z,200.11
2023-05-07T09:22:11.249Z,216.49
2023-05-07T09:23:06.864Z,225.87
2023-05-07T09:24:02.370Z,233.59
2023-05-07T09:24:57.832Z,233.10
2023-05-07T09:25:53.375Z,255.01
2023-05-07T09:26:48.850Z,269.47
2023-05-07T09:27:44.452Z,279.33
2023-05-07T09:28:39.968Z,304.76
2023-05-07T09:29:35.657Z,308.19
2023-05-07T09:30:31.240Z,327.58
2023-05-07T09:31:26.519Z,325.30
2023-05-07T09:32:22.006Z,321.16
2023-05-07T09:33:17.624Z,285.65
2023-05-07T09:34:12.965Z,255.81
2023-05-07T09:35:08.541Z,238.00
2023-05-07T09:36:03.730Z,223.72
2023-05-07T09:36:59.361Z,230.96
2023-05-07T09:37:54.963Z,237.65
2023-05-07T09:39:45.895Z,227.76
2023-05-07T09:40:41.414Z,217.49
2023-05-07T09:41:37.070Z,216.49
2023-05-07T09:42:32.524Z,264.05
2023-05-07T09:43:28.056Z,298.93
2023-05-07T09:44:23.433Z,335.96
2023-05-07T09:45:18.920Z,349.56
2023-05-07T09:46:14.711Z,338.73
2023-05-07T09:47:09.726Z,336.30
2023-05-07T09:48:05.231Z,369.23
2023-05-07T09:49:00.725Z,379.53
2023-05-07T09:49:56.097Z,382.14
2023-05-07T09:50:51.728Z,386.79
2023-05-07T09:51:46.987Z,379.75
2023-05-07T09:52:42.436Z,376.86
2023-05-07T09:53:38.013Z,354.09
2023-05-07T09:54:33.601Z,357.95
2023-05-07T09:55:29.420Z,404.88
2023-05-07T09:56:24.675Z,431.89
2023-05-07T09:57:20.323Z,446.34
2023-05-07T09:58:15.782Z,449.95
2023-05-07T09:59:11.386Z,429.94
2023-05-07T10:00:07.055Z,375.57
2023-05-07T10:01:02.377Z,327.58
2023-05-07T10:01:57.658Z,329.22
2023-05-07T10:02:53.468Z,334.59
2023-05-07T10:03:48.763Z,320.22
2023-05-07T10:04:44.396Z,339.44
2023-05-07T10:05:39.782Z,365.53
2023-05-07T10:06:35.127Z,382.80
2023-05-07T10:07:30.620Z,384.12
2023-05-07T10:08:26.069Z,387.02
2023-05-07T10:09:21.353Z,391.33
2023-05-07T10:10:17.032Z,384.12
2023-05-07T10:11:12.292Z,317.13
2023-05-07T10:12:07.775Z,291.49
2023-05-07T10:13:03.324Z,246.95
2023-05-07T10:13:58.793Z,195.58
2023-05-07T10:14:54.356Z,224.95
2023-05-07T10:15:49.870Z,245.84
2023-05-07T10:16:45.197Z,281.25
2023-05-07T10:17:40.824Z,316.52
2023-05-07T10:18:36.237Z,363.10
2023-05-07T10:19:31.733Z,424.19
2023-05-07T10:20:27.335Z,425.55
2023-05-07T10:21:22.925Z,459.57
2023-05-07T10:22:18.227Z,445.15
2023-05-07T10:23:13.733Z,434.14
2023-05-07T10:24:09.177Z,411.12
2023-05-07T10:25:06.536Z,342.98
2023-05-07T10:26:01.300Z,312.30
2023-05-07T10:26:55.527Z,338.73
2023-05-07T10:27:51.162Z,377.73
2023-05-07T10:28:46.651Z,444.85
2023-05-07T10:29:42.111Z,544.80
2023-05-07T10:30:38.486Z,521.78
2023-05-07T10:31:33.155Z,555.23
2023-05-07T10:32:28.612Z,563.68
2023-05-07T10:33:24.326Z,567.52
2023-05-07T10:34:19.683Z,574.86
2023-05-07T10:35:15.313Z,585.97
2023-05-07T10:36:10.744Z,655.04
2023-05-07T10:37:06.148Z,681.83
2023-05-07T10:38:01.540Z,690.30
2023-05-07T10:38:57.014Z,676.30
2023-05-07T10:39:52.765Z,688.88
2023-05-07T10:40:48.622Z,669.51
2023-05-07T10:41:43.697Z,623.79
2023-05-07T10:42:39.313Z,592.74
2023-05-07T10:43:34.809Z,560.84
2023-05-07T10:44:30.309Z,514.14
2023-05-07T10:45:25.998Z,466.32
2023-05-07T10:46:21.401Z,406.85
2023-05-07T10:47:16.915Z,492.86
2023-05-07T10:49:07.878Z,468.28
2023-05-07T10:50:03.379Z,514.93
2023-05-07T10:50:58.852Z,552.01
2023-05-07T10:51:54.450Z,579.35
2023-05-07T10:52:49.859Z,489.24
2023-05-07T10:53:45.321Z,460.84
2023-05-07T10:54:40.761Z,460.52
2023-05-07T10:55:36.368Z,435.55
2023-05-07T10:56:31.716Z,454.25
2023-05-07T10:57:27.201Z,417.29
2023-05-07T10:58:31.381Z,444.26
2023-05-07T10:59:19.011Z,439.57
2023-05-07T11:00:13.620Z,417.82
2023-05-07T11:01:09.139Z,414.18
2023-05-07T11:02:04.711Z,420.18
2023-05-07T11:03:00.046Z,418.60
2023-05-07T11:03:55.768Z,408.10
2023-05-07T11:04:51.029Z,429.11
2023-05-07T11:05:46.855Z,452.40
2023-05-07T11:06:41.791Z,442.78
2023-05-07T11:07:37.253Z,471.93
2023-05-07T11:08:32.666Z,486.39
2023-05-07T11:09:28.109Z,492.13
2023-05-07T11:10:23.621Z,471.93
2023-05-07T11:11:19.134Z,444.55
2023-05-07T11:12:14.714Z,451.17
2023-05-07T11:13:10.314Z,452.40
2023-05-07T11:14:05.753Z,380.61
2023-05-07T11:15:01.497Z,346.24
2023-05-07T11:15:57.018Z,349.56
2023-05-07T11:16:52.370Z,359.52
2023-05-07T11:17:47.872Z,360.31
2023-05-07T11:18:43.236Z,392.72
2023-05-07T11:19:38.683Z,420.71
2023-05-07T11:20:34.395Z,425.82
2023-05-07T11:21:29.811Z,382.58
2023-05-07T11:22:25.218Z,354.47
2023-05-07T11:23:20.629Z,358.73
2023-05-07T11:24:16.251Z,353.33
2023-05-07T11:25:11.922Z,331.55
2023-05-07T11:26:07.336Z,316.21
2023-05-07T11:27:02.921Z,308.77
2023-05-07T11:27:58.435Z,311.41
2023-05-07T11:28:53.908Z,284.66
2023-05-07T11:29:49.508Z,277.44
2023-05-07T11:30:45.133Z,261.94
2023-05-07T11:31:40.466Z,254.82
2023-05-07T11:32:35.856Z,246.58
2023-05-07T11:33:31.424Z,242.04
2023-05-07T11:34:26.994Z,256.21
2023-05-07T11:35:22.620Z,256.01
2023-05-07T11:36:18.044Z,248.26
2023-05-07T11:37:13.664Z,255.21
2023-05-07T11:38:09.074Z,266.62
2023-05-07T11:39:04.650Z,263.20
2023-05-07T11:40:00.218Z,270.80
2023-05-07T11:40:55.702Z,254.62